sensor_id;sensor_type;location;lat;lon;timestamp;P1;durP1;ratioP1;P2;durP2;ratioP2
9836;SDS011;4957;51.412;6.724;2023-08-20T00:00:52;9.40;;;5.40;;
9836;SDS011;4957;51.412;6.724;2023-08-20T00:03:18;8.23;;;5.50;;
9836;SDS011;4957;51.412;6.724;2023-08-20T00:05:44;12.27;;;5.43;;
9836;SDS011;4957;51.412;6.724;2023-08-20T00:08:09;10.40;;;5.77;;
9836;SDS011;4957;51.412;6.724;2023-08-20T00:10:35;10.30;;;5.50;;
9836;SDS011;4957;51.412;6.724;2023-08-20T00:13:01;9.90;;;5.70;;
9836;SDS011;4957;51.412;6.724;2023-08-20T00:15:27;8.00;;;5.60;;
9836;SDS011;4957;51.412;6.724;2023-08-20T00:17:53;11.60;;;6.03;;
9836;SDS011;4957;51.412;6.724;2023-08-20T00:20:20;11.90;;;5.40;;
9836;SDS011;4957;51.412;6.724;2023-08-20T00:22:47;7.97;;;5.20;;
9836;SDS011;4957;51.412;6.724;2023-08-20T00:25:13;8.83;;;5.60;;
9836;SDS011;4957;51.412;6.724;2023-08-20T00:27:40;8.73;;;5.10;;
9836;SDS011;4957;51.412;6.724;2023-08-20T00:30:07;5.53;;;4.70;;
9836;SDS011;4957;51.412;6.724;2023-08-20T00:32:33;9.07;;;4.97;;
9836;SDS011;4957;51.412;6.724;2023-08-20T00:34:59;7.50;;;5.17;;
9836;SDS011;4957;51.412;6.724;2023-08-20T00:37:25;9.83;;;5.20;;
9836;SDS011;4957;51.412;6.724;2023-08-20T00:39:51;8.33;;;5.20;;
9836;SDS011;4957;51.412;6.724;2023-08-20T00:42:17;7.73;;;5.30;;
9836;SDS011;4957;51.412;6.724;2023-08-20T00:44:43;9.80;;;5.47;;
9836;SDS011;4957;51.412;6.724;2023-08-20T00:47:11;11.20;;;5.07;;
9836;SDS011;4957;51.412;6.724;2023-08-20T00:49:38;12.27;;;5.70;;
9836;SDS011;4957;51.412;6.724;2023-08-20T00:52:05;7.70;;;4.67;;
9836;SDS011;4957;51.412;6.724;2023-08-20T00:54:33;7.40;;;5.20;;
9836;SDS011;4957;51.412;6.724;2023-08-20T00:56:59;7.57;;;4.90;;
9836;SDS011;4957;51.412;6.724;2023-08-20T00:59:27;7.23;;;5.67;;
9836;SDS011;4957;51.412;6.724;2023-08-20T01:01:55;9.00;;;5.17;;
9836;SDS011;4957;51.412;6.724;2023-08-20T01:04:20;11.30;;;5.57;;
9836;SDS011;4957;51.412;6.724;2023-08-20T01:12:20;9.00;;;5.33;;
9836;SDS011;4957;51.412;6.724;2023-08-20T01:14:49;8.10;;;4.70;;
9836;SDS011;4957;51.412;6.724;2023-08-20T01:17:15;6.10;;;4.77;;
9836;SDS011;4957;51.412;6.724;2023-08-20T01:19:41;7.93;;;4.37;;
9836;SDS011;4957;51.412;6.724;2023-08-20T01:30:50;8.37;;;5.40;;
9836;SDS011;4957;51.412;6.724;2023-08-20T01:33:17;7.30;;;4.83;;
9836;SDS011;4957;51.412;6.724;2023-08-20T01:35:44;13.33;;;5.40;;
9836;SDS011;4957;51.412;6.724;2023-08-20T01:38:10;8.83;;;5.00;;
9836;SDS011;4957;51.412;6.724;2023-08-20T01:40:35;8.77;;;4.63;;
9836;SDS011;4957;51.412;6.724;2023-08-20T01:43:01;13.83;;;5.80;;
9836;SDS011;4957;51.412;6.724;2023-08-20T01:45:27;7.03;;;4.70;;
9836;SDS011;4957;51.412;6.724;2023-08-20T01:47:53;7.70;;;5.03;;
9836;SDS011;4957;51.412;6.724;2023-08-20T01:50:18;6.90;;;4.83;;
9836;SDS011;4957;51.412;6.724;2023-08-20T01:52:44;10.60;;;4.80;;
9836;SDS011;4957;51.412;6.724;2023-08-20T01:55:10;8.27;;;5.10;;
9836;SDS011;4957;51.412;6.724;2023-08-20T01:57:36;7.40;;;5.23;;
9836;SDS011;4957;51.412;6.724;2023-08-20T02:00:02;9.20;;;5.33;;
9836;SDS011;4957;51.412;6.724;2023-08-20T02:02:32;12.30;;;4.97;;
9836;SDS011;4957;51.412;6.724;2023-08-20T02:04:59;11.10;;;5.50;;
9836;SDS011;4957;51.412;6.724;2023-08-20T02:07:25;7.03;;;5.33;;
9836;SDS011;4957;51.412;6.724;2023-08-20T02:09:50;4.87;;;4.37;;
9836;SDS011;4957;51.412;6.724;2023-08-20T02:12:16;5.90;;;4.60;;
9836;SDS011;4957;51.412;6.724;2023-08-20T02:14:42;7.30;;;5.53;;
9836;SDS011;4957;51.412;6.724;2023-08-20T02:17:08;9.30;;;5.60;;
9836;SDS011;4957;51.412;6.724;2023-08-20T02:19:34;10.10;;;5.27;;
9836;SDS011;4957;51.412;6.724;2023-08-20T02:22:00;6.73;;;5.67;;
9836;SDS011;4957;51.412;6.724;2023-08-20T02:24:25;9.07;;;6.47;;
9836;SDS011;4957;51.412;6.724;2023-08-20T02:26:51;9.77;;;6.10;;
9836;SDS011;4957;51.412;6.724;2023-08-20T02:29:17;9.50;;;6.60;;
9836;SDS011;4957;51.412;6.724;2023-08-20T02:31:42;8.40;;;6.40;;
9836;SDS011;4957;51.412;6.724;2023-08-20T02:34:08;9.77;;;6.63;;
9836;SDS011;4957;51.412;6.724;2023-08-20T02:36:34;11.40;;;6.37;;
9836;SDS011;4957;51.412;6.724;2023-08-20T02:38:59;11.37;;;7.43;;
9836;SDS011;4957;51.412;6.724;2023-08-20T02:41:25;14.27;;;7.10;;
9836;SDS011;4957;51.412;6.724;2023-08-20T02:43:51;10.03;;;6.57;;
9836;SDS011;4957;51.412;6.724;2023-08-20T02:46:16;6.67;;;5.70;;
9836;SDS011;4957;51.412;6.724;2023-08-20T02:48:42;9.90;;;6.53;;
9836;SDS011;4957;51.412;6.724;2023-08-20T02:51:08;10.27;;;7.00;;
9836;SDS011;4957;51.412;6.724;2023-08-20T02:53:33;11.50;;;7.53;;
9836;SDS011;4957;51.412;6.724;2023-08-20T02:55:59;9.47;;;7.10;;
9836;SDS011;4957;51.412;6.724;2023-08-20T02:58:25;8.80;;;6.67;;
9836;SDS011;4957;51.412;6.724;2023-08-20T03:00:50;8.77;;;7.03;;
9836;SDS011;4957;51.412;6.724;2023-08-20T03:03:16;7.90;;;6.47;;
9836;SDS011;4957;51.412;6.724;2023-08-20T03:05:42;5.63;;;4.97;;
9836;SDS011;4957;51.412;6.724;2023-08-20T03:08:08;12.50;;;6.10;;
9836;SDS011;4957;51.412;6.724;2023-08-20T03:10:34;8.33;;;6.60;;
9836;SDS011;4957;51.412;6.724;2023-08-20T03:13:00;9.43;;;6.63;;
9836;SDS011;4957;51.412;6.724;2023-08-20T03:15:27;13.00;;;7.20;;
9836;SDS011;4957;51.412;6.724;2023-08-20T03:17:54;9.03;;;6.87;;
9836;SDS011;4957;51.412;6.724;2023-08-20T03:20:19;9.60;;;7.50;;
9836;SDS011;4957;51.412;6.724;2023-08-20T03:22:45;9.87;;;7.20;;
9836;SDS011;4957;51.412;6.724;2023-08-20T03:25:11;12.20;;;7.73;;
9836;SDS011;4957;51.412;6.724;2023-08-20T03:27:37;11.07;;;7.20;;
9836;SDS011;4957;51.412;6.724;2023-08-20T03:30:03;10.67;;;6.43;;
9836;SDS011;4957;51.412;6.724;2023-08-20T03:32:30;9.20;;;6.67;;
9836;SDS011;4957;51.412;6.724;2023-08-20T03:34:56;11.17;;;6.80;;
9836;SDS011;4957;51.412;6.724;2023-08-20T03:37:24;11.87;;;7.60;;
9836;SDS011;4957;51.412;6.724;2023-08-20T03:39:50;13.77;;;7.80;;
9836;SDS011;4957;51.412;6.724;2023-08-20T03:42:15;10.80;;;7.00;;
9836;SDS011;4957;51.412;6.724;2023-08-20T03:44:41;10.90;;;6.67;;
9836;SDS011;4957;51.412;6.724;2023-08-20T03:47:07;14.87;;;6.80;;
9836;SDS011;4957;51.412;6.724;2023-08-20T03:49:33;12.13;;;7.13;;
9836;SDS011;4957;51.412;6.724;2023-08-20T03:51:59;14.80;;;7.30;;
9836;SDS011;4957;51.412;6.724;2023-08-20T03:54:26;12.27;;;7.20;;
9836;SDS011;4957;51.412;6.724;2023-08-20T03:56:53;11.30;;;7.33;;
9836;SDS011;4957;51.412;6.724;2023-08-20T03:59:19;10.03;;;6.33;;
9836;SDS011;4957;51.412;6.724;2023-08-20T04:01:45;9.47;;;6.43;;
9836;SDS011;4957;51.412;6.724;2023-08-20T04:04:10;13.83;;;7.03;;
9836;SDS011;4957;51.412;6.724;2023-08-20T04:06:36;9.87;;;5.93;;
9836;SDS011;4957;51.412;6.724;2023-08-20T04:09:01;10.07;;;6.33;;
9836;SDS011;4957;51.412;6.724;2023-08-20T04:11:28;9.33;;;6.37;;
9836;SDS011;4957;51.412;6.724;2023-08-20T04:13:53;9.87;;;6.90;;
9836;SDS011;4957;51.412;6.724;2023-08-20T04:16:19;10.13;;;6.73;;
9836;SDS011;4957;51.412;6.724;2023-08-20T04:18:45;8.17;;;6.07;;
9836;SDS011;4957;51.412;6.724;2023-08-20T04:21:10;10.97;;;6.00;;
9836;SDS011;4957;51.412;6.724;2023-08-20T04:23:36;6.33;;;5.20;;
9836;SDS011;4957;51.412;6.724;2023-08-20T04:26:02;12.33;;;6.17;;
9836;SDS011;4957;51.412;6.724;2023-08-20T04:28:28;11.93;;;6.23;;
9836;SDS011;4957;51.412;6.724;2023-08-20T04:30:54;10.00;;;7.00;;
9836;SDS011;4957;51.412;6.724;2023-08-20T04:33:20;14.23;;;7.03;;
9836;SDS011;4957;51.412;6.724;2023-08-20T04:35:46;12.33;;;7.10;;
9836;SDS011;4957;51.412;6.724;2023-08-20T04:38:15;12.07;;;7.67;;
9836;SDS011;4957;51.412;6.724;2023-08-20T04:40:41;14.63;;;7.70;;
9836;SDS011;4957;51.412;6.724;2023-08-20T04:43:06;14.57;;;7.27;;
9836;SDS011;4957;51.412;6.724;2023-08-20T04:45:32;9.60;;;7.00;;
9836;SDS011;4957;51.412;6.724;2023-08-20T04:47:59;21.33;;;9.37;;
9836;SDS011;4957;51.412;6.724;2023-08-20T04:50:24;10.40;;;5.43;;
9836;SDS011;4957;51.412;6.724;2023-08-20T04:52:50;10.87;;;5.60;;
9836;SDS011;4957;51.412;6.724;2023-08-20T04:55:16;14.50;;;6.53;;
9836;SDS011;4957;51.412;6.724;2023-08-20T04:57:42;12.07;;;7.30;;
9836;SDS011;4957;51.412;6.724;2023-08-20T05:00:07;17.13;;;7.30;;
9836;SDS011;4957;51.412;6.724;2023-08-20T05:02:35;7.60;;;5.33;;
9836;SDS011;4957;51.412;6.724;2023-08-20T05:05:01;10.03;;;6.53;;
9836;SDS011;4957;51.412;6.724;2023-08-20T05:07:27;11.33;;;7.07;;
9836;SDS011;4957;51.412;6.724;2023-08-20T05:09:53;9.90;;;7.20;;
9836;SDS011;4957;51.412;6.724;2023-08-20T05:12:19;13.73;;;8.33;;
9836;SDS011;4957;51.412;6.724;2023-08-20T05:14:44;14.60;;;8.17;;
9836;SDS011;4957;51.412;6.724;2023-08-20T05:17:10;13.90;;;8.17;;
9836;SDS011;4957;51.412;6.724;2023-08-20T05:19:36;14.70;;;8.63;;
9836;SDS011;4957;51.412;6.724;2023-08-20T05:22:02;12.90;;;7.97;;
9836;SDS011;4957;51.412;6.724;2023-08-20T05:24:27;16.63;;;8.37;;
9836;SDS011;4957;51.412;6.724;2023-08-20T05:29:32;16.37;;;7.77;;
9836;SDS011;4957;51.412;6.724;2023-08-20T05:31:58;18.27;;;8.57;;
9836;SDS011;4957;51.412;6.724;2023-08-20T05:34:23;15.33;;;9.47;;
9836;SDS011;4957;51.412;6.724;2023-08-20T05:36:49;21.87;;;9.67;;
9836;SDS011;4957;51.412;6.724;2023-08-20T05:39:15;18.90;;;9.73;;
9836;SDS011;4957;51.412;6.724;2023-08-20T05:41:41;20.47;;;9.83;;
9836;SDS011;4957;51.412;6.724;2023-08-20T05:44:06;22.57;;;10.67;;
9836;SDS011;4957;51.412;6.724;2023-08-20T05:46:32;24.80;;;13.37;;
9836;SDS011;4957;51.412;6.724;2023-08-20T05:48:57;32.03;;;17.03;;
9836;SDS011;4957;51.412;6.724;2023-08-20T05:51:23;31.23;;;17.60;;
9836;SDS011;4957;51.412;6.724;2023-08-20T05:53:49;35.47;;;17.70;;
9836;SDS011;4957;51.412;6.724;2023-08-20T05:56:14;37.87;;;19.70;;
9836;SDS011;4957;51.412;6.724;2023-08-20T05:58:40;44.40;;;21.67;;
9836;SDS011;4957;51.412;6.724;2023-08-20T06:01:06;53.70;;;24.00;;
9836;SDS011;4957;51.412;6.724;2023-08-20T06:03:31;55.03;;;26.07;;
9836;SDS011;4957;51.412;6.724;2023-08-20T06:05:57;55.70;;;27.17;;
9836;SDS011;4957;51.412;6.724;2023-08-20T06:08:23;70.03;;;32.57;;
9836;SDS011;4957;51.412;6.724;2023-08-20T06:10:49;63.37;;;31.30;;
9836;SDS011;4957;51.412;6.724;2023-08-20T06:13:15;69.43;;;32.77;;
9836;SDS011;4957;51.412;6.724;2023-08-20T06:15:41;65.93;;;33.10;;
9836;SDS011;4957;51.412;6.724;2023-08-20T06:18:07;74.30;;;36.27;;
9836;SDS011;4957;51.412;6.724;2023-08-20T06:20:32;66.10;;;34.67;;
9836;SDS011;4957;51.412;6.724;2023-08-20T06:22:58;61.97;;;33.47;;
9836;SDS011;4957;51.412;6.724;2023-08-20T06:25:23;70.97;;;37.83;;
9836;SDS011;4957;51.412;6.724;2023-08-20T06:27:49;74.87;;;37.63;;
9836;SDS011;4957;51.412;6.724;2023-08-20T06:30:15;71.47;;;35.63;;
9836;SDS011;4957;51.412;6.724;2023-08-20T06:32:41;61.90;;;35.10;;
9836;SDS011;4957;51.412;6.724;2023-08-20T06:35:09;57.70;;;32.83;;
9836;SDS011;4957;51.412;6.724;2023-08-20T06:37:35;53.60;;;31.70;;
9836;SDS011;4957;51.412;6.724;2023-08-20T06:40:00;48.03;;;27.60;;
9836;SDS011;4957;51.412;6.724;2023-08-20T06:42:26;46.83;;;27.20;;
9836;SDS011;4957;51.412;6.724;2023-08-20T06:44:52;43.43;;;27.07;;
9836;SDS011;4957;51.412;6.724;2023-08-20T06:47:17;44.97;;;26.40;;
9836;SDS011;4957;51.412;6.724;2023-08-20T06:49:43;33.37;;;23.57;;
9836;SDS011;4957;51.412;6.724;2023-08-20T06:52:09;33.73;;;23.27;;
9836;SDS011;4957;51.412;6.724;2023-08-20T06:54:35;26.63;;;17.90;;
9836;SDS011;4957;51.412;6.724;2023-08-20T06:57:00;26.47;;;17.90;;
9836;SDS011;4957;51.412;6.724;2023-08-20T06:59:26;30.13;;;15.13;;
9836;SDS011;4957;51.412;6.724;2023-08-20T07:01:52;25.27;;;16.40;;
9836;SDS011;4957;51.412;6.724;2023-08-20T07:04:18;20.13;;;13.77;;
9836;SDS011;4957;51.412;6.724;2023-08-20T07:06:43;15.13;;;11.23;;
9836;SDS011;4957;51.412;6.724;2023-08-20T07:09:09;16.17;;;11.17;;
9836;SDS011;4957;51.412;6.724;2023-08-20T07:11:35;14.17;;;9.97;;
9836;SDS011;4957;51.412;6.724;2023-08-20T07:14:00;16.83;;;10.97;;
9836;SDS011;4957;51.412;6.724;2023-08-20T07:16:26;14.27;;;10.10;;
9836;SDS011;4957;51.412;6.724;2023-08-20T07:18:52;14.20;;;10.80;;
9836;SDS011;4957;51.412;6.724;2023-08-20T07:21:18;13.77;;;9.77;;
9836;SDS011;4957;51.412;6.724;2023-08-20T07:23:44;12.23;;;9.70;;
9836;SDS011;4957;51.412;6.724;2023-08-20T07:26:10;15.20;;;10.57;;
9836;SDS011;4957;51.412;6.724;2023-08-20T07:28:39;16.93;;;11.40;;
9836;SDS011;4957;51.412;6.724;2023-08-20T07:31:31;19.77;;;8.83;;
9836;SDS011;4957;51.412;6.724;2023-08-20T07:33:58;18.17;;;9.87;;
9836;SDS011;4957;51.412;6.724;2023-08-20T07:36:26;15.63;;;9.20;;
9836;SDS011;4957;51.412;6.724;2023-08-20T07:38:53;11.83;;;9.00;;
9836;SDS011;4957;51.412;6.724;2023-08-20T07:41:19;14.63;;;8.43;;
9836;SDS011;4957;51.412;6.724;2023-08-20T07:43:45;15.50;;;9.00;;
9836;SDS011;4957;51.412;6.724;2023-08-20T07:46:11;14.17;;;8.83;;
9836;SDS011;4957;51.412;6.724;2023-08-20T07:48:38;16.10;;;10.00;;
9836;SDS011;4957;51.412;6.724;2023-08-20T07:51:03;12.53;;;9.30;;
9836;SDS011;4957;51.412;6.724;2023-08-20T07:53:30;16.47;;;9.30;;
9836;SDS011;4957;51.412;6.724;2023-08-20T07:55:56;14.97;;;8.60;;
9836;SDS011;4957;51.412;6.724;2023-08-20T07:58:22;14.50;;;9.77;;
9836;SDS011;4957;51.412;6.724;2023-08-20T08:00:47;13.13;;;9.57;;
9836;SDS011;4957;51.412;6.724;2023-08-20T08:03:13;13.07;;;8.20;;
9836;SDS011;4957;51.412;6.724;2023-08-20T08:05:51;13.47;;;8.43;;
9836;SDS011;4957;51.412;6.724;2023-08-20T08:08:18;11.60;;;8.40;;
9836;SDS011;4957;51.412;6.724;2023-08-20T08:10:44;11.90;;;8.33;;
9836;SDS011;4957;51.412;6.724;2023-08-20T08:13:11;10.80;;;8.40;;
9836;SDS011;4957;51.412;6.724;2023-08-20T08:15:37;9.10;;;7.60;;
9836;SDS011;4957;51.412;6.724;2023-08-20T08:18:03;10.53;;;7.63;;
9836;SDS011;4957;51.412;6.724;2023-08-20T08:20:29;11.80;;;7.60;;
9836;SDS011;4957;51.412;6.724;2023-08-20T08:22:55;11.50;;;7.60;;
9836;SDS011;4957;51.412;6.724;2023-08-20T08:25:20;10.00;;;7.90;;
9836;SDS011;4957;51.412;6.724;2023-08-20T08:27:46;11.30;;;7.23;;
9836;SDS011;4957;51.412;6.724;2023-08-20T08:30:12;9.30;;;6.47;;
9836;SDS011;4957;51.412;6.724;2023-08-20T08:32:38;13.33;;;8.10;;
9836;SDS011;4957;51.412;6.724;2023-08-20T08:35:03;10.73;;;8.10;;
9836;SDS011;4957;51.412;6.724;2023-08-20T08:37:29;10.97;;;7.80;;
9836;SDS011;4957;51.412;6.724;2023-08-20T08:39:55;11.47;;;7.63;;
9836;SDS011;4957;51.412;6.724;2023-08-20T08:42:21;13.10;;;7.47;;
9836;SDS011;4957;51.412;6.724;2023-08-20T08:44:49;12.60;;;8.73;;
9836;SDS011;4957;51.412;6.724;2023-08-20T08:47:15;12.60;;;7.87;;
9836;SDS011;4957;51.412;6.724;2023-08-20T08:49:41;12.70;;;8.27;;
9836;SDS011;4957;51.412;6.724;2023-08-20T08:52:08;12.40;;;8.53;;
9836;SDS011;4957;51.412;6.724;2023-08-20T08:54:36;12.50;;;8.40;;
9836;SDS011;4957;51.412;6.724;2023-08-20T08:57:02;13.70;;;8.93;;
9836;SDS011;4957;51.412;6.724;2023-08-20T08:59:29;15.47;;;9.60;;
9836;SDS011;4957;51.412;6.724;2023-08-20T09:01:54;11.00;;;7.70;;
9836;SDS011;4957;51.412;6.724;2023-08-20T09:04:22;9.33;;;7.43;;
9836;SDS011;4957;51.412;6.724;2023-08-20T09:09:16;7.40;;;6.23;;
9836;SDS011;4957;51.412;6.724;2023-08-20T09:11:42;8.70;;;5.63;;
9836;SDS011;4957;51.412;6.724;2023-08-20T09:14:08;7.80;;;5.33;;
9836;SDS011;4957;51.412;6.724;2023-08-20T09:16:57;9.03;;;6.13;;
9836;SDS011;4957;51.412;6.724;2023-08-20T09:19:30;7.87;;;6.03;;
9836;SDS011;4957;51.412;6.724;2023-08-20T09:22:00;11.60;;;7.50;;
9836;SDS011;4957;51.412;6.724;2023-08-20T09:24:26;9.17;;;6.93;;
9836;SDS011;4957;51.412;6.724;2023-08-20T09:27:09;7.87;;;6.07;;
9836;SDS011;4957;51.412;6.724;2023-08-20T09:29:45;7.70;;;6.00;;
9836;SDS011;4957;51.412;6.724;2023-08-20T09:32:14;11.13;;;6.80;;
9836;SDS011;4957;51.412;6.724;2023-08-20T09:34:40;9.10;;;6.43;;
9836;SDS011;4957;51.412;6.724;2023-08-20T09:37:13;8.43;;;6.47;;
9836;SDS011;4957;51.412;6.724;2023-08-20T09:39:40;9.43;;;7.13;;
9836;SDS011;4957;51.412;6.724;2023-08-20T09:42:07;14.63;;;6.80;;
9836;SDS011;4957;51.412;6.724;2023-08-20T09:44:35;9.10;;;7.67;;
9836;SDS011;4957;51.412;6.724;2023-08-20T09:47:02;15.63;;;8.40;;
9836;SDS011;4957;51.412;6.724;2023-08-20T09:49:31;14.47;;;9.73;;
9836;SDS011;4957;51.412;6.724;2023-08-20T09:52:02;12.03;;;8.80;;
9836;SDS011;4957;51.412;6.724;2023-08-20T09:57:04;14.77;;;10.70;;
9836;SDS011;4957;51.412;6.724;2023-08-20T09:59:35;12.23;;;9.50;;
9836;SDS011;4957;51.412;6.724;2023-08-20T10:02:01;13.77;;;10.00;;
9836;SDS011;4957;51.412;6.724;2023-08-20T10:04:27;9.73;;;8.47;;
9836;SDS011;4957;51.412;6.724;2023-08-20T10:06:54;12.50;;;8.90;;
9836;SDS011;4957;51.412;6.724;2023-08-20T10:09:23;13.33;;;8.53;;
9836;SDS011;4957;51.412;6.724;2023-08-20T10:11:49;8.47;;;6.93;;
9836;SDS011;4957;51.412;6.724;2023-08-20T10:14:15;8.10;;;7.30;;
9836;SDS011;4957;51.412;6.724;2023-08-20T10:16:41;11.13;;;7.20;;
9836;SDS011;4957;51.412;6.724;2023-08-20T10:19:07;9.23;;;6.60;;
9836;SDS011;4957;51.412;6.724;2023-08-20T10:21:33;9.37;;;7.30;;
9836;SDS011;4957;51.412;6.724;2023-08-20T10:24:03;9.27;;;6.40;;
9836;SDS011;4957;51.412;6.724;2023-08-20T10:26:30;9.77;;;6.83;;
9836;SDS011;4957;51.412;6.724;2023-08-20T10:32:06;9.30;;;7.23;;
9836;SDS011;4957;51.412;6.724;2023-08-20T10:34:38;6.90;;;6.17;;
9836;SDS011;4957;51.412;6.724;2023-08-20T10:37:25;7.63;;;6.70;;
9836;SDS011;4957;51.412;6.724;2023-08-20T10:39:56;8.90;;;5.50;;
9836;SDS011;4957;51.412;6.724;2023-08-20T10:42:25;7.17;;;5.87;;
9836;SDS011;4957;51.412;6.724;2023-08-20T10:44:58;7.23;;;5.43;;
9836;SDS011;4957;51.412;6.724;2023-08-20T10:47:26;8.43;;;5.50;;
9836;SDS011;4957;51.412;6.724;2023-08-20T10:50:01;6.60;;;4.90;;
9836;SDS011;4957;51.412;6.724;2023-08-20T10:52:27;7.60;;;4.83;;
9836;SDS011;4957;51.412;6.724;2023-08-20T10:54:53;6.60;;;4.70;;
9836;SDS011;4957;51.412;6.724;2023-08-20T10:57:21;6.47;;;5.07;;
9836;SDS011;4957;51.412;6.724;2023-08-20T10:59:57;6.43;;;4.57;;
9836;SDS011;4957;51.412;6.724;2023-08-20T11:02:25;7.57;;;4.60;;
9836;SDS011;4957;51.412;6.724;2023-08-20T11:04:53;7.03;;;3.70;;
9836;SDS011;4957;51.412;6.724;2023-08-20T11:07:19;6.43;;;3.90;;
9836;SDS011;4957;51.412;6.724;2023-08-20T11:09:45;9.87;;;4.07;;
9836;SDS011;4957;51.412;6.724;2023-08-20T11:12:16;8.57;;;6.00;;
9836;SDS011;4957;51.412;6.724;2023-08-20T11:14:46;9.77;;;4.70;;
9836;SDS011;4957;51.412;6.724;2023-08-20T11:17:11;5.73;;;4.00;;
9836;SDS011;4957;51.412;6.724;2023-08-20T11:19:38;6.87;;;4.67;;
9836;SDS011;4957;51.412;6.724;2023-08-20T11:22:04;5.80;;;4.00;;
9836;SDS011;4957;51.412;6.724;2023-08-20T11:24:30;5.83;;;4.43;;
9836;SDS011;4957;51.412;6.724;2023-08-20T11:26:55;5.03;;;3.90;;
9836;SDS011;4957;51.412;6.724;2023-08-20T11:29:21;4.50;;;3.73;;
9836;SDS011;4957;51.412;6.724;2023-08-20T11:31:47;5.67;;;3.90;;
9836;SDS011;4957;51.412;6.724;2023-08-20T11:34:13;5.43;;;3.73;;
9836;SDS011;4957;51.412;6.724;2023-08-20T11:36:39;5.77;;;3.70;;
9836;SDS011;4957;51.412;6.724;2023-08-20T11:39:05;8.77;;;3.40;;
9836;SDS011;4957;51.412;6.724;2023-08-20T11:41:34;5.33;;;3.33;;
9836;SDS011;4957;51.412;6.724;2023-08-20T11:44:01;4.47;;;2.90;;
9836;SDS011;4957;51.412;6.724;2023-08-20T11:46:28;4.33;;;2.37;;
9836;SDS011;4957;51.412;6.724;2023-08-20T11:49:10;4.07;;;2.73;;
9836;SDS011;4957;51.412;6.724;2023-08-20T11:51:37;4.13;;;2.93;;
9836;SDS011;4957;51.412;6.724;2023-08-20T11:54:08;5.37;;;2.67;;
9836;SDS011;4957;51.412;6.724;2023-08-20T11:56:48;5.13;;;3.10;;
9836;SDS011;4957;51.412;6.724;2023-08-20T11:59:15;3.50;;;2.93;;
9836;SDS011;4957;51.412;6.724;2023-08-20T12:01:42;3.23;;;2.67;;
9836;SDS011;4957;51.412;6.724;2023-08-20T12:04:08;6.30;;;2.77;;
9836;SDS011;4957;51.412;6.724;2023-08-20T12:06:35;5.20;;;2.93;;
9836;SDS011;4957;51.412;6.724;2023-08-20T12:09:12;5.90;;;3.10;;
9836;SDS011;4957;51.412;6.724;2023-08-20T12:11:50;3.43;;;2.80;;
9836;SDS011;4957;51.412;6.724;2023-08-20T12:14:21;8.57;;;2.70;;
9836;SDS011;4957;51.412;6.724;2023-08-20T12:16:47;4.47;;;2.33;;
9836;SDS011;4957;51.412;6.724;2023-08-20T12:19:13;7.27;;;2.57;;
9836;SDS011;4957;51.412;6.724;2023-08-20T12:21:39;7.17;;;2.80;;
9836;SDS011;4957;51.412;6.724;2023-08-20T12:24:06;5.27;;;2.57;;
9836;SDS011;4957;51.412;6.724;2023-08-20T12:26:33;4.90;;;2.50;;
9836;SDS011;4957;51.412;6.724;2023-08-20T12:28:59;5.70;;;2.40;;
9836;SDS011;4957;51.412;6.724;2023-08-20T12:31:24;3.97;;;1.97;;
9836;SDS011;4957;51.412;6.724;2023-08-20T12:33:50;6.47;;;2.33;;
9836;SDS011;4957;51.412;6.724;2023-08-20T12:36:16;4.20;;;1.63;;
9836;SDS011;4957;51.412;6.724;2023-08-20T12:38:41;4.23;;;2.20;;
9836;SDS011;4957;51.412;6.724;2023-08-20T12:41:07;4.63;;;2.10;;
9836;SDS011;4957;51.412;6.724;2023-08-20T12:43:33;6.03;;;2.10;;
9836;SDS011;4957;51.412;6.724;2023-08-20T12:45:59;5.20;;;2.33;;
9836;SDS011;4957;51.412;6.724;2023-08-20T12:48:24;5.03;;;2.30;;
9836;SDS011;4957;51.412;6.724;2023-08-20T12:50:50;2.93;;;2.40;;
9836;SDS011;4957;51.412;6.724;2023-08-20T12:53:16;6.60;;;2.40;;
9836;SDS011;4957;51.412;6.724;2023-08-20T12:55:41;4.53;;;2.20;;
9836;SDS011;4957;51.412;6.724;2023-08-20T12:58:07;3.97;;;2.00;;
9836;SDS011;4957;51.412;6.724;2023-08-20T13:00:36;3.57;;;1.90;;
9836;SDS011;4957;51.412;6.724;2023-08-20T13:03:02;5.87;;;2.10;;
9836;SDS011;4957;51.412;6.724;2023-08-20T13:05:28;4.53;;;2.00;;
9836;SDS011;4957;51.412;6.724;2023-08-20T13:07:54;8.30;;;2.03;;
9836;SDS011;4957;51.412;6.724;2023-08-20T13:10:20;7.13;;;1.90;;
9836;SDS011;4957;51.412;6.724;2023-08-20T13:12:47;5.63;;;2.47;;
9836;SDS011;4957;51.412;6.724;2023-08-20T13:15:16;4.10;;;2.10;;
9836;SDS011;4957;51.412;6.724;2023-08-20T13:17:43;5.97;;;2.10;;
9836;SDS011;4957;51.412;6.724;2023-08-20T13:20:10;5.53;;;2.10;;
9836;SDS011;4957;51.412;6.724;2023-08-20T13:22:36;4.17;;;1.83;;
9836;SDS011;4957;51.412;6.724;2023-08-20T13:25:02;6.07;;;2.17;;
9836;SDS011;4957;51.412;6.724;2023-08-20T13:27:29;4.60;;;2.10;;
9836;SDS011;4957;51.412;6.724;2023-08-20T13:29:55;7.07;;;1.90;;
9836;SDS011;4957;51.412;6.724;2023-08-20T13:32:21;7.40;;;1.80;;
9836;SDS011;4957;51.412;6.724;2023-08-20T13:34:48;4.33;;;2.10;;
9836;SDS011;4957;51.412;6.724;2023-08-20T13:37:14;3.30;;;1.97;;
9836;SDS011;4957;51.412;6.724;2023-08-20T13:39:40;4.53;;;2.10;;
9836;SDS011;4957;51.412;6.724;2023-08-20T13:42:06;4.00;;;2.00;;
9836;SDS011;4957;51.412;6.724;2023-08-20T13:44:32;6.63;;;2.30;;
9836;SDS011;4957;51.412;6.724;2023-08-20T13:46:57;6.40;;;2.17;;
9836;SDS011;4957;51.412;6.724;2023-08-20T13:49:24;6.80;;;2.50;;
9836;SDS011;4957;51.412;6.724;2023-08-20T13:51:50;8.00;;;2.20;;
9836;SDS011;4957;51.412;6.724;2023-08-20T13:54:16;4.83;;;1.83;;
9836;SDS011;4957;51.412;6.724;2023-08-20T13:56:41;4.60;;;2.10;;
9836;SDS011;4957;51.412;6.724;2023-08-20T13:59:09;5.77;;;2.20;;
9836;SDS011;4957;51.412;6.724;2023-08-20T14:01:35;4.17;;;2.23;;
9836;SDS011;4957;51.412;6.724;2023-08-20T14:04:01;4.07;;;2.40;;
9836;SDS011;4957;51.412;6.724;2023-08-20T14:06:27;3.90;;;2.70;;
9836;SDS011;4957;51.412;6.724;2023-08-20T14:08:53;5.30;;;2.37;;
9836;SDS011;4957;51.412;6.724;2023-08-20T14:11:19;3.37;;;1.67;;
9836;SDS011;4957;51.412;6.724;2023-08-20T14:13:45;5.33;;;2.03;;
9836;SDS011;4957;51.412;6.724;2023-08-20T14:16:12;8.23;;;2.20;;
9836;SDS011;4957;51.412;6.724;2023-08-20T14:18:37;5.03;;;2.13;;
9836;SDS011;4957;51.412;6.724;2023-08-20T14:21:03;2.40;;;1.60;;
9836;SDS011;4957;51.412;6.724;2023-08-20T14:23:29;4.23;;;1.70;;
9836;SDS011;4957;51.412;6.724;2023-08-20T14:25:54;4.57;;;1.73;;
9836;SDS011;4957;51.412;6.724;2023-08-20T14:28:20;2.27;;;1.60;;
9836;SDS011;4957;51.412;6.724;2023-08-20T14:30:47;3.57;;;1.83;;
9836;SDS011;4957;51.412;6.724;2023-08-20T14:33:14;5.03;;;1.77;;
9836;SDS011;4957;51.412;6.724;2023-08-20T14:35:40;3.57;;;2.00;;
9836;SDS011;4957;51.412;6.724;2023-08-20T14:38:06;6.70;;;2.13;;
9836;SDS011;4957;51.412;6.724;2023-08-20T14:40:36;2.30;;;1.53;;
9836;SDS011;4957;51.412;6.724;2023-08-20T14:43:04;4.53;;;1.73;;
9836;SDS011;4957;51.412;6.724;2023-08-20T14:45:31;4.33;;;1.80;;
9836;SDS011;4957;51.412;6.724;2023-08-20T14:47:56;6.00;;;1.90;;
9836;SDS011;4957;51.412;6.724;2023-08-20T14:50:22;3.47;;;1.43;;
9836;SDS011;4957;51.412;6.724;2023-08-20T14:52:48;4.40;;;1.93;;
9836;SDS011;4957;51.412;6.724;2023-08-20T14:55:17;2.43;;;1.73;;
9836;SDS011;4957;51.412;6.724;2023-08-20T14:57:43;8.17;;;1.93;;
9836;SDS011;4957;51.412;6.724;2023-08-20T15:00:09;5.17;;;1.67;;
9836;SDS011;4957;51.412;6.724;2023-08-20T15:02:39;5.17;;;1.93;;
9836;SDS011;4957;51.412;6.724;2023-08-20T15:05:05;3.43;;;2.23;;
9836;SDS011;4957;51.412;6.724;2023-08-20T15:07:31;3.53;;;2.00;;
9836;SDS011;4957;51.412;6.724;2023-08-20T15:09:56;3.10;;;1.97;;
9836;SDS011;4957;51.412;6.724;2023-08-20T15:12:22;2.03;;;1.47;;
9836;SDS011;4957;51.412;6.724;2023-08-20T15:14:48;4.20;;;1.93;;
9836;SDS011;4957;51.412;6.724;2023-08-20T15:17:14;4.40;;;1.90;;
9836;SDS011;4957;51.412;6.724;2023-08-20T15:19:39;7.43;;;1.80;;
9836;SDS011;4957;51.412;6.724;2023-08-20T15:22:05;3.47;;;2.10;;
9836;SDS011;4957;51.412;6.724;2023-08-20T15:24:31;3.90;;;1.80;;
9836;SDS011;4957;51.412;6.724;2023-08-20T15:26:56;3.90;;;1.70;;
9836;SDS011;4957;51.412;6.724;2023-08-20T15:29:22;5.80;;;1.70;;